createdAt,value
2018-09-25T00:02:18.479Z,3.90
2018-09-25T00:04:52.258Z,3.90
2018-09-25T00:07:25.878Z,3.90
2018-09-25T00:09:59.882Z,3.90
2018-09-25T00:12:33.330Z,3.80
2018-09-25T00:15:06.991Z,3.70
2018-09-25T00:17:40.983Z,3.90
2018-09-25T00:20:14.533Z,3.90
2018-09-25T00:22:48.242Z,3.90
2018-09-25T00:25:21.907Z,3.80
2018-09-25T00:27:55.431Z,3.80
2018-09-25T00:30:29.094Z,3.70
2018-09-25T00:33:02.679Z,3.60
2018-09-25T00:35:39.703Z,3.50
2018-09-25T00:38:13.284Z,3.40
2018-09-25T00:40:46.806Z,3.30
2018-09-25T00:43:21.938Z,3.10
2018-09-25T00:45:55.667Z,3.10
2018-09-25T00:48:29.245Z,3.20
2018-09-25T00:51:03.020Z,3.10
2018-09-25T00:53:36.977Z,3.10
2018-09-25T00:56:10.521Z,3.00
2018-09-25T00:58:44.178Z,2.90
2018-09-25T01:01:17.738Z,2.90
2018-09-25T01:03:51.982Z,2.80
2018-09-25T01:06:25.460Z,3.00
2018-09-25T01:08:59.175Z,3.10
2018-09-25T01:11:32.719Z,3.20
2018-09-25T01:14:06.409Z,3.20
2018-09-25T01:16:39.974Z,3.30
2018-09-25T01:19:13.753Z,3.30
2018-09-25T01:21:47.255Z,3.20
2018-09-25T01:24:20.903Z,3.20
2018-09-25T01:26:54.982Z,3.30
2018-09-25T01:29:28.489Z,3.30
2018-09-25T01:32:02.191Z,3.30
2018-09-25T01:34:35.786Z,3.20
2018-09-25T01:37:09.495Z,3.20
2018-09-25T01:39:43.461Z,3.10
2018-09-25T01:42:16.958Z,3.10
2018-09-25T01:44:50.639Z,3.10
2018-09-25T01:47:24.158Z,3.00
2018-09-25T01:49:57.837Z,2.90
2018-09-25T01:52:31.663Z,2.90
2018-09-25T01:55:05.377Z,2.90
2018-09-25T01:57:40.730Z,2.90
2018-09-25T02:00:15.226Z,2.90
2018-09-25T02:02:48.747Z,2.90
2018-09-25T02:05:22.367Z,3.00
2018-09-25T02:07:57.198Z,3.00
2018-09-25T02:10:30.976Z,3.10
2018-09-25T02:13:05.157Z,3.00
2018-09-25T02:15:40.354Z,2.80
2018-09-25T02:18:13.933Z,2.70
2018-09-25T02:20:47.451Z,2.50
2018-09-25T02:23:21.170Z,2.30
2018-09-25T02:26:01.372Z,2.10
2018-09-25T02:28:35.695Z,2.00
2018-09-25T02:31:11.111Z,2.00
2018-09-25T02:33:44.598Z,2.00
2018-09-25T02:36:19.014Z,2.00
2018-09-25T02:38:52.560Z,2.00
2018-09-25T02:41:27.146Z,2.00
2018-09-25T02:44:00.706Z,2.00
2018-09-25T02:46:34.468Z,2.20
2018-09-25T02:49:11.608Z,2.30
2018-09-25T02:51:45.330Z,2.30
2018-09-25T02:54:18.879Z,2.20
2018-09-25T02:56:52.626Z,2.20
2018-09-25T02:59:26.158Z,2.30
2018-09-25T03:01:59.846Z,2.30
2018-09-25T03:04:33.643Z,2.30
2018-09-25T03:07:07.308Z,2.20
2018-09-25T03:09:41.779Z,2.10
2018-09-25T03:12:15.798Z,2.00
2018-09-25T03:14:49.422Z,2.00
2018-09-25T03:17:23.666Z,2.00
2018-09-25T03:19:57.261Z,1.90
2018-09-25T03:22:33.673Z,1.80
2018-09-25T03:25:07.614Z,1.90
2018-09-25T03:27:41.273Z,2.00
2018-09-25T03:30:15.691Z,2.10
2018-09-25T03:32:49.213Z,2.20
2018-09-25T03:35:23.310Z,2.20
2018-09-25T03:37:56.921Z,2.10
2018-09-25T03:40:30.525Z,2.00
2018-09-25T03:43:04.018Z,1.90
2018-09-25T03:45:37.667Z,1.80
2018-09-25T03:48:11.539Z,1.60
2018-09-25T03:50:45.202Z,1.40
2018-09-25T03:53:19.183Z,1.30
2018-09-25T03:55:52.630Z,1.30
2018-09-25T03:58:26.239Z,1.20
2018-09-25T04:00:59.803Z,1.20
2018-09-25T04:03:33.555Z,1.20
2018-09-25T04:06:07.415Z,1.50
2018-09-25T04:08:41.064Z,1.80
2018-09-25T04:11:14.762Z,2.10
2018-09-25T04:13:48.314Z,2.20
2018-09-25T04:16:21.946Z,2.30
2018-09-25T04:18:55.902Z,2.30
2018-09-25T04:21:29.374Z,2.20
2018-09-25T04:24:03.205Z,2.10
2018-09-25T04:26:37.010Z,2.10
2018-09-25T04:29:10.681Z,2.00
2018-09-25T04:31:44.202Z,1.80
2018-09-25T04:34:17.846Z,1.60
2018-09-25T04:36:51.568Z,1.50
2018-09-25T04:39:25.070Z,1.40
2018-09-25T04:41:58.760Z,1.30
2018-09-25T04:44:32.399Z,1.40
2018-09-25T04:47:06.075Z,1.50
2018-09-25T04:49:39.754Z,1.60
2018-09-25T04:52:13.334Z,1.70
2018-09-25T04:54:47.010Z,1.80
2018-09-25T04:57:20.551Z,1.80
2018-09-25T04:59:54.282Z,1.60
2018-09-25T05:02:27.991Z,1.50
2018-09-25T05:05:01.479Z,1.40
2018-09-25T05:07:35.131Z,1.30
2018-09-25T05:10:08.631Z,1.20
2018-09-25T05:12:42.287Z,1.20
2018-09-25T05:15:16.058Z,1.40
2018-09-25T05:17:49.607Z,1.50
2018-09-25T05:20:23.138Z,1.60
2018-09-25T05:22:56.910Z,1.60
2018-09-25T05:25:30.442Z,1.60
2018-09-25T05:28:05.978Z,1.60
2018-09-25T05:30:39.626Z,1.70
2018-09-25T05:33:13.359Z,1.80
2018-09-25T05:35:46.959Z,1.90
2018-09-25T05:38:20.817Z,2.00
2018-09-25T05:40:55.281Z,2.00
2018-09-25T05:43:30.452Z,2.10
2018-09-25T05:46:04.048Z,2.00
2018-09-25T05:48:37.913Z,2.00
2018-09-25T05:51:14.662Z,2.00
2018-09-25T05:53:48.238Z,2.00
2018-09-25T05:56:21.955Z,2.00
2018-09-25T05:58:55.490Z,2.10
2018-09-25T06:01:29.041Z,2.20
2018-09-25T06:04:02.711Z,2.30
2018-09-25T06:06:36.393Z,2.30
2018-09-25T06:09:12.502Z,2.40
2018-09-25T06:11:46.241Z,2.50
2018-09-25T06:14:20.894Z,3.00
2018-09-25T06:16:55.405Z,4.20
2018-09-25T06:19:29.835Z,5.60
2018-09-25T06:22:03.413Z,6.70
2018-09-25T06:24:37.133Z,7.70
2018-09-25T06:27:25.574Z,8.20
2018-09-25T06:29:59.144Z,9.20
2018-09-25T06:32:39.096Z,9.90
2018-09-25T06:35:13.366Z,10.70
2018-09-25T06:37:46.935Z,10.90
2018-09-25T06:40:20.666Z,11.50
2018-09-25T06:42:54.382Z,12.20
2018-09-25T06:45:28.053Z,12.60
2018-09-25T06:48:01.626Z,12.90
2018-09-25T06:50:35.255Z,13.20
2018-09-25T06:53:08.806Z,13.80
2018-09-25T06:55:42.524Z,14.10
2018-09-25T06:58:16.033Z,14.20
2018-09-25T07:00:49.734Z,14.50
2018-09-25T07:03:24.224Z,14.80
2018-09-25T07:05:58.654Z,14.80
2018-09-25T07:08:32.329Z,14.80
2018-09-25T07:11:05.942Z,14.50
2018-09-25T07:13:40.246Z,14.40
2018-09-25T07:16:13.942Z,14.30
2018-09-25T07:18:48.956Z,14.40
2018-09-25T07:21:22.577Z,14.40
2018-09-25T07:23:56.167Z,14.50
2018-09-25T07:26:29.878Z,14.60
2018-09-25T07:29:03.522Z,14.40
2018-09-25T07:31:37.182Z,14.20
2018-09-25T07:34:11.558Z,14.00
2018-09-25T07:36:45.214Z,14.20
2018-09-25T07:39:18.770Z,14.20
2018-09-25T07:41:52.491Z,14.20
2018-09-25T07:44:25.970Z,14.50
2018-09-25T07:46:59.746Z,14.90
2018-09-25T07:49:34.043Z,15.10
2018-09-25T07:52:07.735Z,15.20
2018-09-25T07:54:42.107Z,14.60
2018-09-25T07:57:15.601Z,14.30
2018-09-25T07:59:49.400Z,14.00
2018-09-25T08:02:22.947Z,14.10
2018-09-25T08:04:56.539Z,14.10
2018-09-25T08:07:30.152Z,14.00
2018-09-25T08:10:03.677Z,14.00
2018-09-25T08:12:37.210Z,14.40
2018-09-25T08:15:10.842Z,15.00
2018-09-25T08:17:44.461Z,15.30
2018-09-25T08:20:18.209Z,14.80
2018-09-25T08:22:52.611Z,14.80
2018-09-25T08:25:26.134Z,15.00
2018-09-25T08:27:59.726Z,14.80
2018-09-25T08:30:33.239Z,14.40
2018-09-25T08:33:07.290Z,14.20
2018-09-25T08:35:40.874Z,14.30
2018-09-25T08:38:15.546Z,14.10
2018-09-25T08:40:49.031Z,14.20
2018-09-25T08:43:22.632Z,14.20
2018-09-25T08:45:56.454Z,14.00
2018-09-25T08:48:31.557Z,13.90
2018-09-25T08:51:05.046Z,14.20
2018-09-25T08:53:38.686Z,14.60
2018-09-25T08:56:12.634Z,15.20
2018-09-25T08:58:46.990Z,15.40
2018-09-25T09:01:20.518Z,15.50
2018-09-25T09:03:54.246Z,15.50
2018-09-25T09:06:27.751Z,15.70
2018-09-25T09:09:05.902Z,15.60
2018-09-25T09:11:39.386Z,15.60
2018-09-25T09:14:13.486Z,15.90
2018-09-25T09:16:47.635Z,16.40
2018-09-25T09:19:21.499Z,16.40
2018-09-25T09:21:55.194Z,16.70
2018-09-25T09:24:29.250Z,16.50
2018-09-25T09:27:02.822Z,16.30
2018-09-25T09:29:36.543Z,16.60
2018-09-25T09:32:12.039Z,17.60
2018-09-25T09:34:45.452Z,18.10
2018-09-25T09:37:19.097Z,17.50
2018-09-25T09:39:53.090Z,17.90
2018-09-25T09:42:26.934Z,18.40
2018-09-25T09:45:00.493Z,18.50
2018-09-25T09:47:34.173Z,18.80
2018-09-25T09:50:07.550Z,18.20
2018-09-25T09:52:41.271Z,17.70
2018-09-25T09:55:14.835Z,17.00
2018-09-25T09:57:48.469Z,17.00
2018-09-25T10:00:22.318Z,16.80
2018-09-25T10:02:55.872Z,17.30
2018-09-25T10:05:29.532Z,17.60
2018-09-25T10:08:03.085Z,16.70
2018-09-25T10:10:37.643Z,16.20
2018-09-25T10:13:12.209Z,16.20
2018-09-25T10:15:45.853Z,16.40
2018-09-25T10:18:19.398Z,17.30
2018-09-25T10:20:53.023Z,18.00
2018-09-25T10:23:26.598Z,18.10
2018-09-25T10:26:00.154Z,18.20
2018-09-25T10:28:34.590Z,17.50
2018-09-25T10:31:08.087Z,17.30
2018-09-25T10:33:42.038Z,17.50
2018-09-25T10:36:15.566Z,17.50
2018-09-25T10:38:49.181Z,18.40
2018-09-25T10:41:22.720Z,18.70
2018-09-25T10:43:56.891Z,19.10
2018-09-25T10:46:30.538Z,18.50
2018-09-25T10:49:04.250Z,17.70
2018-09-25T10:51:38.041Z,16.80
2018-09-25T10:54:11.644Z,16.60
2018-09-25T10:56:45.147Z,17.30
2018-09-25T10:59:19.644Z,18.00
2018-09-25T11:01:53.235Z,19.40
2018-09-25T11:04:26.944Z,19.60
2018-09-25T11:07:00.633Z,19.40
2018-09-25T11:09:34.360Z,19.10
2018-09-25T11:12:09.811Z,17.80
2018-09-25T11:14:43.362Z,17.20
2018-09-25T11:17:16.897Z,17.30
2018-09-25T11:19:50.473Z,17.20
2018-09-25T11:22:24.179Z,18.20
2018-09-25T11:24:57.804Z,17.90
2018-09-25T11:27:31.484Z,17.90
2018-09-25T11:30:05.022Z,17.30
2018-09-25T11:32:39.649Z,16.90
2018-09-25T11:35:13.295Z,17.20
2018-09-25T11:37:46.902Z,18.70
2018-09-25T11:40:20.633Z,20.60
2018-09-25T11:42:54.556Z,22.40
2018-09-25T11:45:28.010Z,21.80
2018-09-25T11:48:02.043Z,20.20
2018-09-25T11:50:35.638Z,19.30
2018-09-25T11:53:09.348Z,19.20
2018-09-25T11:55:43.018Z,19.60
2018-09-25T11:58:16.647Z,19.30
2018-09-25T12:00:50.285Z,19.30
2018-09-25T12:03:23.991Z,19.50
2018-09-25T12:05:57.538Z,19.10
2018-09-25T12:08:31.398Z,18.70
2018-09-25T12:11:04.918Z,18.10
2018-09-25T12:13:38.656Z,17.90
2018-09-25T12:16:12.374Z,18.90
2018-09-25T12:18:46.176Z,19.50
2018-09-25T12:21:19.659Z,20.20
2018-09-25T12:23:53.351Z,20.00
2018-09-25T12:26:26.872Z,20.10
2018-09-25T12:29:00.512Z,19.70
2018-09-25T12:31:37.579Z,20.00
2018-09-25T12:34:11.113Z,20.40
2018-09-25T12:36:44.689Z,20.50
2018-09-25T12:39:18.139Z,20.60
2018-09-25T12:41:51.546Z,21.10
2018-09-25T12:44:25.161Z,21.10
2018-09-25T12:46:58.785Z,21.00
2018-09-25T12:49:32.624Z,21.00
2018-09-25T12:52:06.293Z,21.70
2018-09-25T12:54:40.818Z,21.90
2018-09-25T12:57:14.466Z,22.40
2018-09-25T12:59:50.771Z,22.10
2018-09-25T13:02:24.280Z,22.40
2018-09-25T13:04:57.966Z,22.10
2018-09-25T13:07:31.942Z,21.00
2018-09-25T13:10:05.750Z,20.50
2018-09-25T13:12:39.415Z,20.60
2018-09-25T13:15:13.009Z,19.90
2018-09-25T13:17:46.965Z,19.60
2018-09-25T13:20:20.551Z,19.90
2018-09-25T13:22:54.119Z,20.70
2018-09-25T13:25:27.689Z,21.30
2018-09-25T13:28:01.351Z,21.90
2018-09-25T13:30:35.056Z,22.50
2018-09-25T13:33:15.805Z,22.70
2018-09-25T13:35:49.334Z,22.50
2018-09-25T13:38:22.976Z,22.20
2018-09-25T13:40:57.493Z,22.30
2018-09-25T13:43:31.177Z,22.90
2018-09-25T13:46:04.962Z,22.70
2018-09-25T13:51:26.181Z,22.50
2018-09-25T13:53:59.798Z,22.30
2018-09-25T13:56:34.373Z,21.90
2018-09-25T13:59:07.871Z,21.90
2018-09-25T14:01:41.510Z,21.50
2018-09-25T14:04:15.242Z,21.90
2018-09-25T14:06:48.862Z,22.00
2018-09-25T14:09:22.389Z,22.10
2018-09-25T14:11:56.172Z,22.10
2018-09-25T14:14:29.868Z,21.20
2018-09-25T14:17:03.822Z,21.20
2018-09-25T14:19:37.330Z,21.40
2018-09-25T14:22:11.412Z,21.50
2018-09-25T14:24:45.044Z,21.10
2018-09-25T14:27:18.612Z,21.90
2018-09-25T14:29:52.223Z,23.10
2018-09-25T14:32:25.792Z,23.80
2018-09-25T14:34:59.515Z,23.50
2018-09-25T14:37:33.766Z,22.90
2018-09-25T14:40:07.451Z,21.60
2018-09-25T14:42:41.031Z,20.10
2018-09-25T14:45:14.706Z,18.80
2018-09-25T14:47:48.273Z,18.40
2018-09-25T14:50:21.994Z,17.90
2018-09-25T14:52:56.030Z,17.50
2018-09-25T14:55:29.601Z,18.00
2018-09-25T14:58:04.131Z,19.20
2018-09-25T15:00:37.566Z,20.10
2018-09-25T15:03:11.967Z,20.60
2018-09-25T15:05:45.603Z,21.40
2018-09-25T15:08:19.187Z,22.40
2018-09-25T15:10:53.131Z,22.70
2018-09-25T15:13:27.515Z,22.40
2018-09-25T15:16:01.095Z,22.60
2018-09-25T15:18:34.823Z,22.30
2018-09-25T15:21:08.498Z,22.40
2018-09-25T15:23:42.494Z,22.70
2018-09-25T15:26:15.986Z,23.70
2018-09-25T15:28:49.653Z,23.90
2018-09-25T15:31:23.305Z,23.40
2018-09-25T15:33:56.942Z,22.40
2018-09-25T15:36:30.555Z,21.40
2018-09-25T15:39:05.186Z,20.60
2018-09-25T15:41:38.854Z,20.00
2018-09-25T15:44:12.798Z,19.60
2018-09-25T15:46:47.172Z,19.70
2018-09-25T15:49:20.998Z,20.20
2018-09-25T15:51:54.559Z,20.20
2018-09-25T15:54:28.267Z,19.70
2018-09-25T15:57:01.830Z,19.30
2018-09-25T15:59:35.366Z,19.40
2018-09-25T16:02:10.119Z,19.20
2018-09-25T16:04:43.626Z,19.40
2018-09-25T16:07:17.306Z,19.50
2018-09-25T16:09:51.589Z,18.80
2018-09-25T16:12:25.248Z,18.90
2018-09-25T16:14:59.614Z,18.60
2018-09-25T16:17:33.258Z,18.20
2018-09-25T16:20:06.829Z,17.60
2018-09-25T16:22:40.570Z,16.80
2018-09-25T16:25:14.193Z,16.20
2018-09-25T16:27:47.773Z,15.70
2018-09-25T16:30:21.475Z,15.20
2018-09-25T16:32:55.959Z,14.80
2018-09-25T16:35:29.762Z,14.40
2018-09-25T16:38:03.350Z,14.10
2018-09-25T16:40:36.918Z,13.80
2018-09-25T16:43:11.282Z,13.50
2018-09-25T16:45:45.126Z,13.30
2018-09-25T16:48:20.650Z,13.10
2018-09-25T16:50:54.342Z,12.90
2018-09-25T16:53:28.290Z,12.70
2018-09-25T16:56:01.882Z,12.50
2018-09-25T16:58:35.587Z,12.40
2018-09-25T17:01:09.308Z,12.30
2018-09-25T17:03:42.920Z,12.10
2018-09-25T17:06:17.066Z,11.90
2018-09-25T17:08:50.501Z,11.80
2018-09-25T17:11:24.146Z,11.70
2018-09-25T17:13:57.840Z,11.50
2018-09-25T17:16:31.401Z,11.30
2018-09-25T17:19:04.977Z,11.10
2018-09-25T17:21:38.638Z,10.90
2018-09-25T17:24:12.234Z,10.80
2018-09-25T17:26:45.921Z,10.70
2018-09-25T17:29:19.494Z,10.50
2018-09-25T17:31:53.198Z,10.40
2018-09-25T17:34:26.685Z,10.30
2018-09-25T17:37:00.324Z,10.10
2018-09-25T17:39:33.877Z,10.10
2018-09-25T17:42:07.536Z,10.00
2018-09-25T17:44:41.147Z,9.80
2018-09-25T17:47:14.814Z,9.70
2018-09-25T17:49:48.472Z,9.60
2018-09-25T17:52:22.121Z,9.40
2018-09-25T17:54:55.782Z,9.30
2018-09-25T17:57:32.071Z,9.10
2018-09-25T18:00:05.490Z,9.10
2018-09-25T18:02:39.552Z,9.00
2018-09-25T18:05:12.998Z,8.90
2018-09-25T18:07:48.415Z,8.90
2018-09-25T18:10:22.131Z,8.90
2018-09-25T18:12:55.830Z,8.80
2018-09-25T18:15:29.418Z,8.80
2018-09-25T18:18:02.890Z,8.60
2018-09-25T18:20:36.458Z,8.60
2018-09-25T18:23:09.882Z,8.50
2018-09-25T18:25:43.489Z,8.40
2018-09-25T18:28:17.227Z,8.30
2018-09-25T18:30:50.842Z,8.20
2018-09-25T18:33:24.438Z,8.20
2018-09-25T18:35:58.007Z,8.10
2018-09-25T18:38:31.555Z,8.00
2018-09-25T18:41:05.242Z,8.00
2018-09-25T18:43:38.808Z,7.90
2018-09-25T18:46:12.429Z,7.80
2018-09-25T18:48:46.054Z,7.60
2018-09-25T18:51:19.694Z,7.50
2018-09-25T18:53:53.235Z,7.40
2018-09-25T18:56:26.870Z,7.40
2018-09-25T18:59:00.446Z,7.40
2018-09-25T19:01:34.251Z,7.40
2018-09-25T19:04:07.855Z,7.30
2018-09-25T19:06:41.313Z,7.20
2018-09-25T19:09:14.950Z,7.20
2018-09-25T19:11:48.421Z,7.20
2018-09-25T19:14:22.061Z,7.10
2018-09-25T19:16:55.653Z,7.00
2018-09-25T19:19:29.568Z,6.90
2018-09-25T19:22:03.304Z,6.90
2018-09-25T19:24:36.996Z,6.80
2018-09-25T19:27:10.643Z,6.70
2018-09-25T19:29:44.120Z,6.60
2018-09-25T19:32:17.911Z,6.60
2018-09-25T19:34:54.442Z,6.60
2018-09-25T19:37:29.879Z,6.50
2018-09-25T19:40:03.534Z,6.50
2018-09-25T19:42:37.287Z,6.40
2018-09-25T19:45:10.791Z,6.40
2018-09-25T19:47:44.655Z,6.40
2018-09-25T19:50:18.335Z,6.30
2018-09-25T19:52:52.723Z,6.20
2018-09-25T19:55:26.413Z,6.10
2018-09-25T19:58:00.167Z,6.00
2018-09-25T20:00:33.874Z,6.00
2018-09-25T20:03:08.082Z,5.90
2018-09-25T20:05:41.747Z,5.90
2018-09-25T20:08:16.206Z,5.90
2018-09-25T20:10:49.714Z,5.80
2018-09-25T20:13:23.416Z,5.60
2018-09-25T20:15:58.794Z,5.50
2018-09-25T20:18:32.470Z,5.40
2018-09-25T20:21:06.007Z,5.30
2018-09-25T20:23:39.760Z,5.30
2018-09-25T20:26:14.193Z,5.40
2018-09-25T20:28:48.781Z,5.40
2018-09-25T20:31:22.472Z,5.50
2018-09-25T20:33:58.139Z,5.50
2018-09-25T20:36:31.709Z,5.50
2018-09-25T20:39:05.547Z,5.40
2018-09-25T20:41:39.271Z,5.40
2018-09-25T20:44:12.956Z,5.40
2018-09-25T20:46:46.533Z,5.30
2018-09-25T20:58:46.526Z,5.10
2018-09-25T21:01:20.774Z,4.70
2018-09-25T21:03:54.453Z,4.60
2018-09-25T21:06:29.019Z,4.60
2018-09-25T21:09:03.390Z,4.60
2018-09-25T21:11:37.018Z,4.60
2018-09-25T21:14:10.554Z,4.60
2018-09-25T21:16:44.149Z,4.50
2018-09-25T21:19:17.665Z,4.40
2018-09-25T21:21:51.286Z,4.40
2018-09-25T21:24:24.790Z,4.30
2018-09-25T21:26:58.447Z,4.20
2018-09-25T21:29:32.754Z,4.10
2018-09-25T21:32:06.399Z,4.10
2018-09-25T21:34:39.940Z,4.10
2018-09-25T21:37:13.623Z,4.00
2018-09-25T21:39:51.266Z,4.00
2018-09-25T21:42:24.914Z,3.90
2018-09-25T21:44:58.538Z,3.90
2018-09-25T21:47:32.006Z,3.90
2018-09-25T21:50:05.586Z,3.90
2018-09-25T21:52:40.042Z,3.80
2018-09-25T21:55:13.659Z,3.80
2018-09-25T21:57:47.194Z,3.80
2018-09-25T22:00:21.250Z,3.80
2018-09-25T22:02:54.742Z,3.90
2018-09-25T22:05:28.438Z,3.80
2018-09-25T22:08:02.254Z,3.90
2018-09-25T22:10:35.834Z,3.80
2018-09-25T22:13:09.531Z,3.90
2018-09-25T22:15:43.267Z,3.90
2018-09-25T22:18:17.678Z,3.90
2018-09-25T22:20:51.370Z,3.90
2018-09-25T22:23:24.838Z,3.80
2018-09-25T22:25:58.527Z,3.70
2018-09-25T22:28:32.052Z,3.70
2018-09-25T22:31:05.690Z,3.80
2018-09-25T22:33:39.254Z,3.90
2018-09-25T22:36:12.718Z,3.90
2018-09-25T22:38:47.105Z,3.90
2018-09-25T22:41:20.806Z,4.00
2018-09-25T22:43:54.270Z,4.00
2018-09-25T22:46:27.901Z,4.00
2018-09-25T22:49:01.523Z,4.00
2018-09-25T22:51:35.083Z,4.00
2018-09-25T22:54:08.817Z,3.90
2018-09-25T22:56:42.475Z,3.90
2018-09-25T22:59:16.095Z,3.80
2018-09-25T23:01:49.838Z,3.80
2018-09-25T23:04:23.426Z,3.80
2018-09-25T23:06:56.831Z,3.80
2018-09-25T23:09:30.507Z,3.70
2018-09-25T23:12:04.694Z,3.70
2018-09-25T23:14:38.863Z,3.80
2018-09-25T23:17:12.406Z,3.80
2018-09-25T23:19:46.453Z,3.80
2018-09-25T23:22:20.036Z,3.90
2018-09-25T23:24:53.738Z,3.90
2018-09-25T23:27:27.329Z,3.90
2018-09-25T23:30:00.803Z,3.90
2018-09-25T23:32:34.406Z,3.90
2018-09-25T23:35:08.006Z,3.90
2018-09-25T23:37:41.421Z,3.90
2018-09-25T23:40:15.014Z,3.80
2018-09-25T23:42:51.335Z,3.80
2018-09-25T23:47:31.118Z,3.80
2018-09-25T23:50:03.819Z,3.80
2018-09-25T23:52:37.298Z,3.80
2018-09-25T23:55:11.611Z,3.70
2018-09-25T23:57:52.151Z,3.70
